sensor_id;sensor_type;location;lat;lon;timestamp;pressure;altitude;pressure_sealevel;temperature;humidity
33155;BME280;19511;42.682;23.332;2023-02-13T00:01:34;96923.88;;;-0.20;100.00
33155;BME280;19511;42.682;23.332;2023-02-13T00:03:59;96908.53;;;-0.29;100.00
33155;BME280;19511;42.682;23.332;2023-02-13T00:06:25;96918.06;;;-0.13;100.00
33155;BME280;19511;42.682;23.332;2023-02-13T00:08:50;96915.94;;;-0.16;100.00
33155;BME280;19511;42.682;23.332;2023-02-13T00:11:16;96915.16;;;-0.17;100.00
33155;BME280;19511;42.682;23.332;2023-02-13T00:13:41;96833.56;;;-0.69;100.00
33155;BME280;19511;42.682;23.332;2023-02-13T00:16:08;96917.09;;;-0.03;100.00
33155;BME280;19511;42.682;23.332;2023-02-13T00:18:35;96821.31;;;-0.66;100.00
33155;BME280;19511;42.682;23.332;2023-02-13T00:21:07;96930.41;;;-0.02;100.00
33155;BME280;19511;42.682;23.332;2023-02-13T00:23:34;96814.72;;;-0.79;100.00
33155;BME280;19511;42.682;23.332;2023-02-13T00:26:00;96838.50;;;-0.71;100.00
33155;BME280;19511;42.682;23.332;2023-02-13T00:28:26;96933.38;;;-0.17;100.00
33155;BME280;19511;42.682;23.332;2023-02-13T00:30:52;96940.88;;;-0.09;100.00
33155;BME280;19511;42.682;23.332;2023-02-13T00:33:18;96927.63;;;-0.15;100.00
33155;BME280;19511;42.682;23.332;2023-02-13T00:35:43;96933.97;;;-0.20;100.00
33155;BME280;19511;42.682;23.332;2023-02-13T00:38:09;96857.00;;;-0.54;100.00
33155;BME280;19511;42.682;23.332;2023-02-13T00:40:34;96927.41;;;0.00;100.00
33155;BME280;19511;42.682;23.332;2023-02-13T00:42:59;96920.22;;;-0.10;100.00
33155;BME280;19511;42.682;23.332;2023-02-13T00:45:25;96931.50;;;-0.03;100.00
33155;BME280;19511;42.682;23.332;2023-02-13T00:47:50;96939.78;;;0.06;100.00
33155;BME280;19511;42.682;23.332;2023-02-13T00:50:16;96832.19;;;-0.66;100.00
33155;BME280;19511;42.682;23.332;2023-02-13T00:52:41;96831.91;;;-0.64;100.00
33155;BME280;19511;42.682;23.332;2023-02-13T00:55:07;96868.31;;;-0.46;100.00
33155;BME280;19511;42.682;23.332;2023-02-13T00:57:32;96945.03;;;0.03;100.00
33155;BME280;19511;42.682;23.332;2023-02-13T00:59:58;96942.00;;;0.04;100.00
33155;BME280;19511;42.682;23.332;2023-02-13T01:02:24;96871.25;;;-0.62;100.00
33155;BME280;19511;42.682;23.332;2023-02-13T01:04:49;96835.03;;;-0.76;100.00
33155;BME280;19511;42.682;23.332;2023-02-13T01:07:15;96952.25;;;-0.07;100.00
33155;BME280;19511;42.682;23.332;2023-02-13T01:09:40;96945.03;;;0.03;100.00
33155;BME280;19511;42.682;23.332;2023-02-13T01:12:06;96946.53;;;0.09;100.00
33155;BME280;19511;42.682;23.332;2023-02-13T01:14:31;96932.38;;;0.12;100.00
33155;BME280;19511;42.682;23.332;2023-02-13T01:16:57;96834.00;;;-0.61;100.00
33155;BME280;19511;42.682;23.332;2023-02-13T01:19:22;96921.03;;;0.05;100.00
33155;BME280;19511;42.682;23.332;2023-02-13T01:21:48;96926.91;;;0.12;100.00
33155;BME280;19511;42.682;23.332;2023-02-13T01:24:16;96946.31;;;0.24;100.00
33155;BME280;19511;42.682;23.332;2023-02-13T01:26:42;96952.75;;;0.28;100.00
33155;BME280;19511;42.682;23.332;2023-02-13T01:29:10;96834.66;;;-0.51;100.00
33155;BME280;19511;42.682;23.332;2023-02-13T01:31:36;96947.50;;;0.18;100.00
33155;BME280;19511;42.682;23.332;2023-02-13T01:34:01;96937.81;;;0.12;100.00
33155;BME280;19511;42.682;23.332;2023-02-13T01:36:27;96938.03;;;0.15;100.00
33155;BME280;19511;42.682;23.332;2023-02-13T01:38:55;96938.22;;;0.19;100.00
33155;BME280;19511;42.682;23.332;2023-02-13T01:41:21;96952.16;;;0.31;100.00
33155;BME280;19511;42.682;23.332;2023-02-13T01:43:55;96958.63;;;0.36;100.00
33155;BME280;19511;42.682;23.332;2023-02-13T01:46:25;96927.13;;;0.15;100.00
33155;BME280;19511;42.682;23.332;2023-02-13T01:48:54;96819.59;;;-0.43;100.00
33155;BME280;19511;42.682;23.332;2023-02-13T01:51:25;96961.44;;;0.44;100.00
33155;BME280;19511;42.682;23.332;2023-02-13T01:53:57;96958.81;;;0.39;100.00
33155;BME280;19511;42.682;23.332;2023-02-13T01:56:37;96940.69;;;0.35;100.00
33155;BME280;19511;42.682;23.332;2023-02-13T01:59:07;96959.13;;;0.38;100.00
33155;BME280;19511;42.682;23.332;2023-02-13T02:01:35;96964.00;;;0.41;100.00
33155;BME280;19511;42.682;23.332;2023-02-13T02:04:16;96816.56;;;-0.41;100.00
33155;BME280;19511;42.682;23.332;2023-02-13T02:06:46;96933.81;;;0.37;100.00
33155;BME280;19511;42.682;23.332;2023-02-13T02:09:19;96958.72;;;0.44;100.00
33155;BME280;19511;42.682;23.332;2023-02-13T02:11:55;96959.44;;;0.36;100.00
33155;BME280;19511;42.682;23.332;2023-02-13T02:14:25;96936.13;;;0.30;100.00
33155;BME280;19511;42.682;23.332;2023-02-13T02:16:50;96899.59;;;0.03;100.00
33155;BME280;19511;42.682;23.332;2023-02-13T02:39:00;96962.84;;;0.42;100.00
33155;BME280;19511;42.682;23.332;2023-02-13T02:41:53;96960.75;;;0.39;100.00
33155;BME280;19511;42.682;23.332;2023-02-13T02:50:52;96861.47;;;-0.44;100.00
33155;BME280;19511;42.682;23.332;2023-02-13T02:56:10;96981.03;;;0.13;100.00
33155;BME280;19511;42.682;23.332;2023-02-13T02:58:45;96984.28;;;0.15;100.00
33155;BME280;19511;42.682;23.332;2023-02-13T03:01:32;96971.22;;;-0.02;100.00
33155;BME280;19511;42.682;23.332;2023-02-13T03:07:15;96986.94;;;0.02;100.00
33155;BME280;19511;42.682;23.332;2023-02-13T03:09:46;96868.84;;;-0.63;100.00
33155;BME280;19511;42.682;23.332;2023-02-13T03:12:45;96956.66;;;-0.11;100.00
33155;BME280;19511;42.682;23.332;2023-02-13T03:15:32;96983.94;;;0.03;100.00
33155;BME280;19511;42.682;23.332;2023-02-13T03:17:59;96971.22;;;-0.02;100.00
33155;BME280;19511;42.682;23.332;2023-02-13T03:21:08;96985.16;;;0.11;100.00
33155;BME280;19511;42.682;23.332;2023-02-13T03:24:09;96970.25;;;0.08;100.00
33155;BME280;19511;42.682;23.332;2023-02-13T03:29:48;96984.22;;;0.35;100.00
33155;BME280;19511;42.682;23.332;2023-02-13T03:32:47;96962.13;;;0.22;100.00
33155;BME280;19511;42.682;23.332;2023-02-13T03:35:37;96995.53;;;0.42;100.00
33155;BME280;19511;42.682;23.332;2023-02-13T03:41:06;96985.25;;;0.39;100.00
33155;BME280;19511;42.682;23.332;2023-02-13T03:44:15;96990.47;;;0.35;100.00
33155;BME280;19511;42.682;23.332;2023-02-13T03:46:46;96966.59;;;0.32;100.00
33155;BME280;19511;42.682;23.332;2023-02-13T03:49:19;96978.38;;;0.27;100.00
33155;BME280;19511;42.682;23.332;2023-02-13T03:52:09;96985.66;;;0.32;100.00
33155;BME280;19511;42.682;23.332;2023-02-13T03:57:52;96886.28;;;-0.31;100.00
33155;BME280;19511;42.682;23.332;2023-02-13T04:00:43;96977.56;;;0.27;100.00
33155;BME280;19511;42.682;23.332;2023-02-13T04:03:21;96965.19;;;0.02;100.00
33155;BME280;19511;42.682;23.332;2023-02-13T04:06:02;96930.44;;;-0.21;100.00
33155;BME280;19511;42.682;23.332;2023-02-13T04:08:28;96984.22;;;0.02;100.00
33155;BME280;19511;42.682;23.332;2023-02-13T04:11:06;96938.31;;;-0.57;100.00
33155;BME280;19511;42.682;23.332;2023-02-13T04:13:38;96994.75;;;-0.49;100.00
33155;BME280;19511;42.682;23.332;2023-02-13T04:16:15;96986.81;;;-0.64;100.00
33155;BME280;19511;42.682;23.332;2023-02-13T04:18:42;96975.63;;;-0.82;100.00
33155;BME280;19511;42.682;23.332;2023-02-13T04:21:08;96987.75;;;-0.74;100.00
33155;BME280;19511;42.682;23.332;2023-02-13T04:23:34;96978.91;;;-0.85;100.00
33155;BME280;19511;42.682;23.332;2023-02-13T04:26:03;96996.88;;;-0.89;100.00
33155;BME280;19511;42.682;23.332;2023-02-13T04:28:30;96998.03;;;-0.95;100.00
33155;BME280;19511;42.682;23.332;2023-02-13T04:30:55;96985.69;;;-1.07;100.00
33155;BME280;19511;42.682;23.332;2023-02-13T04:33:22;96973.09;;;-1.46;100.00
33155;BME280;19511;42.682;23.332;2023-02-13T04:35:47;96986.50;;;-1.30;100.00
33155;BME280;19511;42.682;23.332;2023-02-13T04:38:13;96974.03;;;-1.32;100.00
33155;BME280;19511;42.682;23.332;2023-02-13T04:40:38;96980.00;;;-1.35;100.00
33155;BME280;19511;42.682;23.332;2023-02-13T04:43:03;96874.94;;;-2.07;100.00
33155;BME280;19511;42.682;23.332;2023-02-13T04:45:29;96995.34;;;-1.20;100.00
33155;BME280;19511;42.682;23.332;2023-02-13T04:47:59;96978.75;;;-1.18;100.00
33155;BME280;19511;42.682;23.332;2023-02-13T04:50:25;96994.00;;;-0.98;100.00
33155;BME280;19511;42.682;23.332;2023-02-13T04:52:55;96880.28;;;-1.72;100.00
33155;BME280;19511;42.682;23.332;2023-02-13T04:55:22;97009.03;;;-1.06;100.00
33155;BME280;19511;42.682;23.332;2023-02-13T04:57:47;96992.91;;;-1.21;100.00
33155;BME280;19511;42.682;23.332;2023-02-13T05:00:13;97011.38;;;-1.23;100.00
33155;BME280;19511;42.682;23.332;2023-02-13T05:02:39;96874.50;;;-2.19;100.00
33155;BME280;19511;42.682;23.332;2023-02-13T05:05:08;97017.50;;;-1.37;100.00
33155;BME280;19511;42.682;23.332;2023-02-13T05:07:35;97028.09;;;-1.35;100.00
33155;BME280;19511;42.682;23.332;2023-02-13T05:10:00;97016.44;;;-1.36;100.00
33155;BME280;19511;42.682;23.332;2023-02-13T05:12:26;96997.53;;;-1.46;100.00
33155;BME280;19511;42.682;23.332;2023-02-13T05:14:51;97007.22;;;-1.40;100.00
33155;BME280;19511;42.682;23.332;2023-02-13T05:17:16;97025.13;;;-1.39;100.00
33155;BME280;19511;42.682;23.332;2023-02-13T05:19:42;97024.03;;;-1.38;100.00
33155;BME280;19511;42.682;23.332;2023-02-13T05:22:11;97011.66;;;-1.49;100.00
33155;BME280;19511;42.682;23.332;2023-02-13T05:24:55;97023.06;;;-1.47;100.00
33155;BME280;19511;42.682;23.332;2023-02-13T05:27:20;97025.75;;;-1.47;100.00
33155;BME280;19511;42.682;23.332;2023-02-13T05:29:46;97027.22;;;-1.30;100.00
33155;BME280;19511;42.682;23.332;2023-02-13T05:32:11;97000.94;;;-1.35;100.00
33155;BME280;19511;42.682;23.332;2023-02-13T05:34:37;97014.28;;;-1.15;100.00
33155;BME280;19511;42.682;23.332;2023-02-13T05:37:02;96921.66;;;-1.61;100.00
33155;BME280;19511;42.682;23.332;2023-02-13T05:39:31;97031.13;;;-0.88;100.00
33155;BME280;19511;42.682;23.332;2023-02-13T05:41:57;97028.16;;;-0.92;100.00
33155;BME280;19511;42.682;23.332;2023-02-13T05:44:23;97015.69;;;-0.93;100.00
33155;BME280;19511;42.682;23.332;2023-02-13T05:46:48;97043.59;;;-0.87;100.00
33155;BME280;19511;42.682;23.332;2023-02-13T05:49:14;97018.06;;;-1.10;100.00
33155;BME280;19511;42.682;23.332;2023-02-13T05:51:40;97045.13;;;-1.00;100.00
33155;BME280;19511;42.682;23.332;2023-02-13T05:54:07;96893.81;;;-1.97;100.00
33155;BME280;19511;42.682;23.332;2023-02-13T05:56:35;97045.44;;;-1.07;100.00
33155;BME280;19511;42.682;23.332;2023-02-13T05:59:00;97046.63;;;-1.13;100.00
33155;BME280;19511;42.682;23.332;2023-02-13T06:01:26;97043.38;;;-1.15;100.00
33155;BME280;19511;42.682;23.332;2023-02-13T06:03:51;97032.59;;;-1.25;100.00
33155;BME280;19511;42.682;23.332;2023-02-13T06:06:17;97053.84;;;-1.33;100.00
33155;BME280;19511;42.682;23.332;2023-02-13T06:08:45;97053.19;;;-1.19;100.00
33155;BME280;19511;42.682;23.332;2023-02-13T06:11:11;97045.03;;;-1.19;100.00
33155;BME280;19511;42.682;23.332;2023-02-13T06:13:36;96924.16;;;-1.94;100.00
33155;BME280;19511;42.682;23.332;2023-02-13T06:16:08;97053.88;;;-1.08;100.00
33155;BME280;19511;42.682;23.332;2023-02-13T06:18:34;97056.78;;;-1.00;100.00
33155;BME280;19511;42.682;23.332;2023-02-13T06:21:00;96930.50;;;-1.75;100.00
33155;BME280;19511;42.682;23.332;2023-02-13T06:23:26;97065.97;;;-0.95;100.00
33155;BME280;19511;42.682;23.332;2023-02-13T06:25:52;97058.41;;;-0.99;100.00
33155;BME280;19511;42.682;23.332;2023-02-13T06:28:17;97067.09;;;-0.96;100.00
33155;BME280;19511;42.682;23.332;2023-02-13T06:30:42;97058.16;;;-1.02;100.00
33155;BME280;19511;42.682;23.332;2023-02-13T06:33:08;97062.44;;;-0.96;100.00
33155;BME280;19511;42.682;23.332;2023-02-13T06:35:33;97064.31;;;-0.91;100.00
33155;BME280;19511;42.682;23.332;2023-02-13T06:38:01;97066.72;;;-0.90;100.00
33155;BME280;19511;42.682;23.332;2023-02-13T06:40:27;97068.53;;;-0.80;100.00
33155;BME280;19511;42.682;23.332;2023-02-13T06:42:52;97062.81;;;-0.78;100.00
33155;BME280;19511;42.682;23.332;2023-02-13T06:45:18;96953.50;;;-1.43;100.00
33155;BME280;19511;42.682;23.332;2023-02-13T06:47:45;97081.22;;;-0.51;100.00
33155;BME280;19511;42.682;23.332;2023-02-13T06:50:12;97075.72;;;-0.46;100.00
33155;BME280;19511;42.682;23.332;2023-02-13T06:52:38;97074.16;;;-0.52;100.00
33155;BME280;19511;42.682;23.332;2023-02-13T06:55:08;97071.13;;;-0.45;100.00
33155;BME280;19511;42.682;23.332;2023-02-13T06:57:33;97008.09;;;-0.72;100.00
33155;BME280;19511;42.682;23.332;2023-02-13T07:00:03;97044.56;;;-0.54;100.00
33155;BME280;19511;42.682;23.332;2023-02-13T07:02:35;97060.31;;;-0.31;100.00
33155;BME280;19511;42.682;23.332;2023-02-13T07:05:05;96990.03;;;-0.62;100.00
33155;BME280;19511;42.682;23.332;2023-02-13T07:07:35;97060.34;;;-0.12;100.00
33155;BME280;19511;42.682;23.332;2023-02-13T07:10:02;96978.06;;;-0.61;100.00
33155;BME280;19511;42.682;23.332;2023-02-13T07:12:28;97036.94;;;-0.32;100.00
33155;BME280;19511;42.682;23.332;2023-02-13T07:14:53;96936.69;;;-0.96;100.00
33155;BME280;19511;42.682;23.332;2023-02-13T07:17:18;96956.09;;;-0.65;100.00
33155;BME280;19511;42.682;23.332;2023-02-13T07:19:44;97057.25;;;-0.06;100.00
33155;BME280;19511;42.682;23.332;2023-02-13T07:22:09;97059.31;;;0.03;100.00
33155;BME280;19511;42.682;23.332;2023-02-13T07:24:35;97071.88;;;-0.02;100.00
33155;BME280;19511;42.682;23.332;2023-02-13T07:27:06;97074.88;;;-0.03;100.00
33155;BME280;19511;42.682;23.332;2023-02-13T07:29:31;97072.69;;;-0.01;100.00
33155;BME280;19511;42.682;23.332;2023-02-13T07:31:56;97071.06;;;-0.02;100.00
33155;BME280;19511;42.682;23.332;2023-02-13T07:34:22;97083.06;;;-0.03;100.00
33155;BME280;19511;42.682;23.332;2023-02-13T07:36:48;97089.28;;;-0.03;100.00
33155;BME280;19511;42.682;23.332;2023-02-13T07:39:13;97074.03;;;0.02;100.00
33155;BME280;19511;42.682;23.332;2023-02-13T07:41:39;97078.72;;;0.15;100.00
33155;BME280;19511;42.682;23.332;2023-02-13T07:44:05;97076.13;;;0.24;100.00
33155;BME280;19511;42.682;23.332;2023-02-13T07:46:31;97072.44;;;0.34;100.00
33155;BME280;19511;42.682;23.332;2023-02-13T07:48:56;97037.72;;;0.25;100.00
33155;BME280;19511;42.682;23.332;2023-02-13T07:51:22;97081.09;;;0.55;100.00
33155;BME280;19511;42.682;23.332;2023-02-13T07:53:52;97047.44;;;0.31;100.00
33155;BME280;19511;42.682;23.332;2023-02-13T07:56:18;97059.19;;;0.46;100.00
33155;BME280;19511;42.682;23.332;2023-02-13T07:58:43;97059.94;;;0.32;100.00
33155;BME280;19511;42.682;23.332;2023-02-13T08:01:14;97045.94;;;0.39;100.00
33155;BME280;19511;42.682;23.332;2023-02-13T08:03:40;96955.41;;;0.01;100.00
33155;BME280;19511;42.682;23.332;2023-02-13T08:06:07;97060.47;;;0.68;100.00
33155;BME280;19511;42.682;23.332;2023-02-13T08:08:33;97071.41;;;0.81;100.00
33155;BME280;19511;42.682;23.332;2023-02-13T08:11:22;97071.41;;;0.81;100.00
33155;BME280;19511;42.682;23.332;2023-02-13T08:14:11;97048.06;;;0.75;100.00
33155;BME280;19511;42.682;23.332;2023-02-13T08:16:36;97060.53;;;0.95;100.00
33155;BME280;19511;42.682;23.332;2023-02-13T08:19:02;96937.22;;;0.29;100.00
33155;BME280;19511;42.682;23.332;2023-02-13T08:21:27;97058.31;;;1.11;100.00
33155;BME280;19511;42.682;23.332;2023-02-13T08:23:53;97056.28;;;1.03;100.00
33155;BME280;19511;42.682;23.332;2023-02-13T08:26:18;97062.34;;;1.14;100.00
33155;BME280;19511;42.682;23.332;2023-02-13T08:28:44;97066.09;;;1.18;100.00
33155;BME280;19511;42.682;23.332;2023-02-13T08:31:13;96962.91;;;0.70;100.00
33155;BME280;19511;42.682;23.332;2023-02-13T08:33:39;97052.06;;;1.39;100.00
33155;BME280;19511;42.682;23.332;2023-02-13T08:36:06;97062.66;;;1.40;100.00
33155;BME280;19511;42.682;23.332;2023-02-13T08:38:32;97063.47;;;1.41;100.00
33155;BME280;19511;42.682;23.332;2023-02-13T08:40:57;97065.69;;;1.53;100.00
33155;BME280;19511;42.682;23.332;2023-02-13T08:43:23;97060.34;;;1.34;100.00
33155;BME280;19511;42.682;23.332;2023-02-13T08:45:49;97053.78;;;1.35;100.00
33155;BME280;19511;42.682;23.332;2023-02-13T08:48:14;96957.47;;;0.84;100.00
33155;BME280;19511;42.682;23.332;2023-02-13T08:50:40;97052.16;;;1.34;100.00
33155;BME280;19511;42.682;23.332;2023-02-13T08:53:05;97067.91;;;1.37;100.00
33155;BME280;19511;42.682;23.332;2023-02-13T08:55:31;97068.13;;;1.40;100.00
33155;BME280;19511;42.682;23.332;2023-02-13T08:58:03;97072.56;;;1.50;100.00
33155;BME280;19511;42.682;23.332;2023-02-13T09:00:29;97054.47;;;1.40;100.00
33155;BME280;19511;42.682;23.332;2023-02-13T09:03:00;96997.22;;;0.98;100.00
33155;BME280;19511;42.682;23.332;2023-02-13T09:05:26;97039.44;;;1.43;100.00
33155;BME280;19511;42.682;23.332;2023-02-13T09:07:51;97067.00;;;1.69;100.00
33155;BME280;19511;42.682;23.332;2023-02-13T09:10:17;97048.22;;;1.54;100.00
33155;BME280;19511;42.682;23.332;2023-02-13T09:12:42;97067.50;;;1.57;100.00
33155;BME280;19511;42.682;23.332;2023-02-13T09:15:08;97056.78;;;1.61;100.00
33155;BME280;19511;42.682;23.332;2023-02-13T09:17:34;97054.66;;;1.72;100.00
33155;BME280;19511;42.682;23.332;2023-02-13T09:19:59;97060.78;;;1.91;100.00
33155;BME280;19511;42.682;23.332;2023-02-13T09:22:28;97042.78;;;1.90;100.00
33155;BME280;19511;42.682;23.332;2023-02-13T09:24:54;96956.81;;;1.42;100.00
33155;BME280;19511;42.682;23.332;2023-02-13T09:27:20;97054.81;;;2.03;100.00
33155;BME280;19511;42.682;23.332;2023-02-13T09:29:45;97064.53;;;2.18;100.00
33155;BME280;19511;42.682;23.332;2023-02-13T09:32:11;97032.13;;;2.03;100.00
33155;BME280;19511;42.682;23.332;2023-02-13T09:34:36;97020.22;;;1.99;100.00
33155;BME280;19511;42.682;23.332;2023-02-13T09:37:02;97055.19;;;2.33;100.00
33155;BME280;19511;42.682;23.332;2023-02-13T09:39:27;97044.66;;;2.40;100.00
33155;BME280;19511;42.682;23.332;2023-02-13T09:41:53;97043.69;;;2.45;100.00
33155;BME280;19511;42.682;23.332;2023-02-13T09:44:30;97027.38;;;2.54;100.00
33155;BME280;19511;42.682;23.332;2023-02-13T09:47:38;97028.16;;;2.77;100.00
33155;BME280;19511;42.682;23.332;2023-02-13T09:52:34;96916.63;;;1.93;100.00
33155;BME280;19511;42.682;23.332;2023-02-13T09:55:01;97025.69;;;2.67;100.00
33155;BME280;19511;42.682;23.332;2023-02-13T10:00:07;97021.47;;;2.60;100.00
33155;BME280;19511;42.682;23.332;2023-02-13T10:11:29;96880.75;;;2.09;100.00
33155;BME280;19511;42.682;23.332;2023-02-13T10:14:22;96992.00;;;2.80;100.00
33155;BME280;19511;42.682;23.332;2023-02-13T10:17:00;96995.00;;;2.70;100.00
33155;BME280;19511;42.682;23.332;2023-02-13T10:19:49;96989.78;;;2.82;100.00
33155;BME280;19511;42.682;23.332;2023-02-13T10:22:24;96924.38;;;2.54;100.00
33155;BME280;19511;42.682;23.332;2023-02-13T10:25:03;96984.38;;;3.08;100.00
33155;BME280;19511;42.682;23.332;2023-02-13T10:27:34;96959.50;;;3.10;100.00
33155;BME280;19511;42.682;23.332;2023-02-13T10:30:21;96972.88;;;3.20;100.00
33155;BME280;19511;42.682;23.332;2023-02-13T10:35:52;96868.13;;;2.53;100.00
33155;BME280;19511;42.682;23.332;2023-02-13T10:38:22;96960.00;;;3.21;100.00
33155;BME280;19511;42.682;23.332;2023-02-13T10:43:27;96848.06;;;2.58;100.00
33155;BME280;19511;42.682;23.332;2023-02-13T11:04:23;96912.56;;;3.78;100.00
33155;BME280;19511;42.682;23.332;2023-02-13T11:06:59;96919.00;;;4.00;100.00
33155;BME280;19511;42.682;23.332;2023-02-13T11:09:25;96913.69;;;4.12;100.00
33155;BME280;19511;42.682;23.332;2023-02-13T11:11:54;96899.03;;;4.08;100.00
33155;BME280;19511;42.682;23.332;2023-02-13T11:14:22;96900.28;;;4.28;100.00
33155;BME280;19511;42.682;23.332;2023-02-13T11:16:53;96789.47;;;3.52;100.00
33155;BME280;19511;42.682;23.332;2023-02-13T11:19:38;96906.56;;;4.29;100.00
33155;BME280;19511;42.682;23.332;2023-02-13T11:22:11;96884.63;;;4.37;100.00
33155;BME280;19511;42.682;23.332;2023-02-13T11:24:41;96884.41;;;4.51;100.00
33155;BME280;19511;42.682;23.332;2023-02-13T11:27:09;96778.09;;;3.88;100.00
33155;BME280;19511;42.682;23.332;2023-02-13T11:29:52;96769.06;;;3.97;100.00
33155;BME280;19511;42.682;23.332;2023-02-13T11:32:26;96875.47;;;4.72;100.00
33155;BME280;19511;42.682;23.332;2023-02-13T11:34:51;96859.72;;;4.90;100.00
33155;BME280;19511;42.682;23.332;2023-02-13T11:39:51;96748.13;;;4.39;100.00
33155;BME280;19511;42.682;23.332;2023-02-13T11:42:35;96849.19;;;5.01;100.00
33155;BME280;19511;42.682;23.332;2023-02-13T11:45:05;96766.19;;;4.62;100.00
33155;BME280;19511;42.682;23.332;2023-02-13T11:47:32;96736.16;;;4.44;100.00
33155;BME280;19511;42.682;23.332;2023-02-13T11:49:58;96834.44;;;5.14;100.00
33155;BME280;19511;42.682;23.332;2023-02-13T11:52:33;96803.09;;;5.15;100.00
33155;BME280;19511;42.682;23.332;2023-02-13T11:55:05;96817.38;;;5.30;100.00
33155;BME280;19511;42.682;23.332;2023-02-13T11:57:34;96711.75;;;4.81;100.00
33155;BME280;19511;42.682;23.332;2023-02-13T12:00:31;96735.00;;;5.17;100.00
33155;BME280;19511;42.682;23.332;2023-02-13T12:02:58;96796.25;;;5.64;100.00
33155;BME280;19511;42.682;23.332;2023-02-13T12:05:29;96785.84;;;5.69;100.00
33155;BME280;19511;42.682;23.332;2023-02-13T12:08:02;96785.09;;;5.81;100.00
33155;BME280;19511;42.682;23.332;2023-02-13T12:10:36;96788.16;;;6.01;100.00
33155;BME280;19511;42.682;23.332;2023-02-13T12:15:37;96786.25;;;5.80;100.00
33155;BME280;19511;42.682;23.332;2023-02-13T12:18:33;96778.19;;;5.75;100.00
33155;BME280;19511;42.682;23.332;2023-02-13T12:23:56;96781.91;;;5.92;100.00
33155;BME280;19511;42.682;23.332;2023-02-13T12:43:21;96762.78;;;6.29;91.96
33155;BME280;19511;42.682;23.332;2023-02-13T12:57:35;96527.44;;;4.76;89.99
33155;BME280;19511;42.682;23.332;2023-02-13T13:11:44;96729.66;;;6.50;87.27
33155;BME280;19511;42.682;23.332;2023-02-13T13:23:18;96727.50;;;6.43;84.75
33155;BME280;19511;42.682;23.332;2023-02-13T13:28:32;96718.66;;;6.50;85.69
33155;BME280;19511;42.682;23.332;2023-02-13T13:31:12;96713.88;;;6.59;84.85
33155;BME280;19511;42.682;23.332;2023-02-13T13:33:45;96701.50;;;6.53;85.06
33155;BME280;19511;42.682;23.332;2023-02-13T13:41:47;96710.53;;;6.66;82.68
33155;BME280;19511;42.682;23.332;2023-02-13T13:44:39;96702.75;;;6.68;83.94
33155;BME280;19511;42.682;23.332;2023-02-13T13:47:31;96705.56;;;6.72;84.46
33155;BME280;19511;42.682;23.332;2023-02-13T13:50:25;96703.66;;;6.60;83.53
33155;BME280;19511;42.682;23.332;2023-02-13T14:04:02;96705.03;;;6.66;87.67
33155;BME280;19511;42.682;23.332;2023-02-13T14:14:48;96611.19;;;5.89;88.72
33155;BME280;19511;42.682;23.332;2023-02-13T14:17:15;96690.84;;;6.39;89.12
33155;BME280;19511;42.682;23.332;2023-02-13T14:19:50;96683.63;;;6.34;90.63
33155;BME280;19511;42.682;23.332;2023-02-13T14:27:32;96663.25;;;6.23;91.32
33155;BME280;19511;42.682;23.332;2023-02-13T14:29:59;96670.25;;;6.33;91.89
33155;BME280;19511;42.682;23.332;2023-02-13T14:32:32;96673.47;;;6.35;91.40
33155;BME280;19511;42.682;23.332;2023-02-13T14:35:00;96587.84;;;5.83;92.17
33155;BME280;19511;42.682;23.332;2023-02-13T14:37:37;96670.25;;;6.45;91.93
33155;BME280;19511;42.682;23.332;2023-02-13T14:40:48;96676.41;;;6.42;91.53
33155;BME280;19511;42.682;23.332;2023-02-13T14:46:36;96676.53;;;6.33;93.39
33155;BME280;19511;42.682;23.332;2023-02-13T14:49:15;96670.00;;;6.26;92.95
33155;BME280;19511;42.682;23.332;2023-02-13T14:51:46;96671.84;;;6.34;92.57
33155;BME280;19511;42.682;23.332;2023-02-13T14:54:32;96670.38;;;6.36;93.20
33155;BME280;19511;42.682;23.332;2023-02-13T14:57:05;96634.88;;;6.07;93.75
33155;BME280;19511;42.682;23.332;2023-02-13T14:59:34;96641.28;;;6.23;94.62
33155;BME280;19511;42.682;23.332;2023-02-13T15:02:14;96649.88;;;6.21;94.10
33155;BME280;19511;42.682;23.332;2023-02-13T15:04:54;96656.97;;;6.23;93.80
33155;BME280;19511;42.682;23.332;2023-02-13T15:07:27;96584.28;;;5.70;94.55
33155;BME280;19511;42.682;23.332;2023-02-13T15:10:03;96668.88;;;6.27;93.85
33155;BME280;19511;42.682;23.332;2023-02-13T15:12:34;96663.38;;;6.14;94.64
33155;BME280;19511;42.682;23.332;2023-02-13T15:15:01;96652.41;;;6.02;95.12
33155;BME280;19511;42.682;23.332;2023-02-13T15:17:32;96663.28;;;6.11;95.17
33155;BME280;19511;42.682;23.332;2023-02-13T15:20:22;96537.72;;;5.12;95.33
33155;BME280;19511;42.682;23.332;2023-02-13T15:22:48;96573.63;;;5.19;95.61
33155;BME280;19511;42.682;23.332;2023-02-13T15:25:40;96665.41;;;5.80;96.36
33155;BME280;19511;42.682;23.332;2023-02-13T15:28:18;96670.66;;;5.73;97.06
33155;BME280;19511;42.682;23.332;2023-02-13T15:33:30;96580.53;;;5.04;98.37
33155;BME280;19511;42.682;23.332;2023-02-13T15:36:03;96671.66;;;5.56;99.31
33155;BME280;19511;42.682;23.332;2023-02-13T15:38:34;96592.38;;;4.96;99.32
33155;BME280;19511;42.682;23.332;2023-02-13T15:41:09;96680.78;;;5.48;100.00
33155;BME280;19511;42.682;23.332;2023-02-13T15:43:41;96685.38;;;5.44;100.00
33155;BME280;19511;42.682;23.332;2023-02-13T15:48:53;96675.34;;;5.27;100.00
33155;BME280;19511;42.682;23.332;2023-02-13T15:51:23;96687.28;;;5.31;100.00
33155;BME280;19511;42.682;23.332;2023-02-13T15:53:58;96687.00;;;5.23;100.00
33155;BME280;19511;42.682;23.332;2023-02-13T15:56:24;96696.38;;;5.22;100.00
33155;BME280;19511;42.682;23.332;2023-02-13T15:58:51;96675.50;;;5.09;100.00
33155;BME280;19511;42.682;23.332;2023-02-13T16:01:18;96591.19;;;4.51;100.00
33155;BME280;19511;42.682;23.332;2023-02-13T16:03:47;96687.28;;;5.10;100.00